createdAt,value
2022-12-01T00:00:40.593Z,1013.18
2022-12-01T00:01:40.885Z,1013.24
2022-12-01T00:02:40.662Z,1013.20
2022-12-01T00:03:40.636Z,1013.17
2022-12-01T00:04:40.551Z,1013.18
2022-12-01T00:05:40.531Z,1013.18
2022-12-01T00:06:40.535Z,1013.22
2022-12-01T00:07:40.568Z,1013.22
2022-12-01T00:08:40.501Z,1013.19
2022-12-01T00:09:40.693Z,1013.18
2022-12-01T00:10:40.472Z,1013.20
2022-12-01T00:11:40.451Z,1013.22
2022-12-01T00:12:40.649Z,1013.19
2022-12-01T00:13:40.429Z,1013.16
2022-12-01T00:14:40.410Z,1013.13
2022-12-01T00:15:40.392Z,1013.06
2022-12-01T00:16:40.527Z,1013.02
2022-12-01T00:17:40.388Z,1013.00
2022-12-01T00:18:40.570Z,1013.06
2022-12-01T00:19:40.342Z,1012.98
2022-12-01T00:20:40.332Z,1013.08
2022-12-01T00:21:40.319Z,1013.11
2022-12-01T00:22:40.523Z,1013.04
2022-12-01T00:23:40.296Z,1013.04
2022-12-01T00:24:40.306Z,1013.06
2022-12-01T00:25:40.259Z,1013.11
2022-12-01T00:26:40.267Z,1013.01
2022-12-01T00:27:40.246Z,1013.09
2022-12-01T00:28:40.461Z,1013.10
2022-12-01T00:29:40.239Z,1013.09
2022-12-01T00:30:40.207Z,1013.05
2022-12-01T00:31:40.216Z,1013.07
2022-12-01T00:32:40.387Z,1013.00
2022-12-01T00:33:40.157Z,1013.07
2022-12-01T00:34:40.198Z,1012.99
2022-12-01T00:35:40.332Z,1013.03
2022-12-01T00:36:40.136Z,1013.04
2022-12-01T00:37:40.110Z,1012.99
2022-12-01T00:38:40.095Z,1013.04
2022-12-01T00:39:40.112Z,1013.01
2022-12-01T00:40:40.085Z,1013.09
2022-12-01T00:41:40.061Z,1012.99
2022-12-01T00:42:40.045Z,1013.08
2022-12-01T00:43:40.026Z,1013.06
2022-12-01T00:44:40.051Z,1013.13
2022-12-01T00:45:40.120Z,1013.08
2022-12-01T00:46:40.004Z,1013.14
2022-12-01T00:47:39.981Z,1013.10
2022-12-01T00:48:39.973Z,1013.11
2022-12-01T00:49:39.971Z,1013.15
2022-12-01T00:50:39.956Z,1013.20
2022-12-01T00:51:40.153Z,1013.13
2022-12-01T00:52:39.915Z,1013.14
2022-12-01T00:53:39.913Z,1013.16
2022-12-01T00:54:39.901Z,1013.24
2022-12-01T00:55:40.081Z,1013.21
2022-12-01T00:56:39.872Z,1013.14
2022-12-01T00:57:39.869Z,1013.19
2022-12-01T00:58:39.858Z,1013.16
2022-12-01T00:59:39.835Z,1013.16
2022-12-01T01:00:40.026Z,1013.20
2022-12-01T01:01:39.869Z,1013.17
2022-12-01T01:02:39.854Z,1013.12
2022-12-01T01:03:40.012Z,1013.18
2022-12-01T01:04:39.804Z,1013.17
2022-12-01T01:05:39.751Z,1013.22
2022-12-01T01:06:39.953Z,1013.17
2022-12-01T01:07:39.781Z,1013.23
2022-12-01T01:08:39.715Z,1013.26
2022-12-01T01:09:39.691Z,1013.20
2022-12-01T01:10:40.012Z,1013.24
2022-12-01T01:11:39.891Z,1013.19
2022-12-01T01:12:39.660Z,1013.17
2022-12-01T01:13:39.647Z,1013.22
2022-12-01T01:14:39.628Z,1013.24
2022-12-01T01:15:39.627Z,1013.19
2022-12-01T01:16:39.927Z,1013.22
2022-12-01T01:17:39.609Z,1013.20
2022-12-01T01:18:39.576Z,1013.24
2022-12-01T01:19:39.565Z,1013.23
2022-12-01T01:20:39.556Z,1013.21
2022-12-01T01:21:39.551Z,1013.21
2022-12-01T01:22:39.735Z,1013.17
2022-12-01T01:23:39.525Z,1013.26
2022-12-01T01:24:39.734Z,1013.25
2022-12-01T01:25:39.493Z,1013.30
2022-12-01T01:26:39.474Z,1013.31
2022-12-01T01:27:39.683Z,1013.27
2022-12-01T01:28:39.455Z,1013.31
2022-12-01T01:29:39.443Z,1013.29
2022-12-01T01:30:39.488Z,1013.29
2022-12-01T01:31:39.423Z,1013.31
2022-12-01T01:32:39.602Z,1013.29
2022-12-01T01:33:39.394Z,1013.32
2022-12-01T01:34:39.372Z,1013.25
2022-12-01T01:35:39.363Z,1013.34
2022-12-01T01:36:39.350Z,1013.28
2022-12-01T01:37:39.555Z,1013.35
2022-12-01T01:38:39.532Z,1013.30
2022-12-01T01:39:39.310Z,1013.33
2022-12-01T01:40:39.502Z,1013.35
2022-12-01T01:41:39.281Z,1013.35
2022-12-01T01:42:39.521Z,1013.41
2022-12-01T01:43:39.471Z,1013.32
2022-12-01T01:44:39.251Z,1013.36
2022-12-01T01:45:39.262Z,1013.42
2022-12-01T01:46:39.218Z,1013.41
2022-12-01T01:47:39.409Z,1013.43
2022-12-01T01:48:39.196Z,1013.40
2022-12-01T01:49:39.199Z,1013.48
2022-12-01T01:50:39.179Z,1013.50
2022-12-01T01:51:39.160Z,1013.51
2022-12-01T01:52:39.146Z,1013.46
2022-12-01T01:53:39.318Z,1013.49
2022-12-01T01:54:39.109Z,1013.45
2022-12-01T01:55:39.312Z,1013.38
2022-12-01T01:56:39.088Z,1013.46
2022-12-01T01:57:39.268Z,1013.47
2022-12-01T01:58:39.276Z,1013.48
2022-12-01T01:59:39.066Z,1013.46
2022-12-01T02:00:39.040Z,1013.51
2022-12-01T02:01:39.089Z,1013.49
2022-12-01T02:02:39.100Z,1013.45
2022-12-01T02:03:39.212Z,1013.48
2022-12-01T02:04:38.985Z,1013.47
2022-12-01T02:05:38.985Z,1013.47
2022-12-01T02:06:38.959Z,1013.44
2022-12-01T02:07:38.994Z,1013.49
2022-12-01T02:08:39.145Z,1013.45
2022-12-01T02:09:38.918Z,1013.46
2022-12-01T02:10:38.913Z,1013.45
2022-12-01T02:11:39.106Z,1013.54
2022-12-01T02:12:38.885Z,1013.45
2022-12-01T02:13:39.094Z,1013.48
2022-12-01T02:14:38.855Z,1013.50
2022-12-01T02:15:38.846Z,1013.44
2022-12-01T02:16:38.863Z,1013.46
2022-12-01T02:17:41.764Z,1013.45
2022-12-01T02:18:39.023Z,1013.44
2022-12-01T02:19:38.795Z,1013.41
2022-12-01T02:20:38.791Z,1013.45
2022-12-01T02:21:38.771Z,1013.39
2022-12-01T02:22:38.763Z,1013.32
2022-12-01T02:23:38.772Z,1013.34
2022-12-01T02:24:38.724Z,1013.41
2022-12-01T02:25:38.751Z,1013.40
2022-12-01T02:26:38.703Z,1013.33
2022-12-01T02:27:38.702Z,1013.35
2022-12-01T02:28:38.879Z,1013.38
2022-12-01T02:29:38.676Z,1013.33
2022-12-01T02:30:38.674Z,1013.37
2022-12-01T02:31:38.651Z,1013.33
2022-12-01T02:32:38.620Z,1013.36
2022-12-01T02:33:38.822Z,1013.30
2022-12-01T02:34:38.632Z,1013.32
2022-12-01T02:35:38.590Z,1013.34
2022-12-01T02:36:38.579Z,1013.35
2022-12-01T02:37:38.558Z,1013.37
2022-12-01T02:38:38.551Z,1013.35
2022-12-01T02:39:38.561Z,1013.36
2022-12-01T02:40:38.528Z,1013.33
2022-12-01T02:41:38.506Z,1013.36
2022-12-01T02:42:38.499Z,1013.38
2022-12-01T02:43:38.707Z,1013.42
2022-12-01T02:44:38.477Z,1013.39
2022-12-01T02:45:38.458Z,1013.42
2022-12-01T02:46:38.495Z,1013.35
2022-12-01T02:47:38.435Z,1013.29
2022-12-01T02:48:38.627Z,1013.30
2022-12-01T02:49:38.416Z,1013.28
2022-12-01T02:50:38.408Z,1013.41
2022-12-01T02:51:38.376Z,1013.33
2022-12-01T02:52:38.375Z,1013.30
2022-12-01T02:53:38.356Z,1013.40
2022-12-01T02:54:38.380Z,1013.31
2022-12-01T02:55:38.331Z,1013.31
2022-12-01T02:56:38.314Z,1013.32
2022-12-01T02:57:38.305Z,1013.30
2022-12-01T02:58:38.295Z,1013.35
2022-12-01T02:59:38.273Z,1013.29
2022-12-01T03:00:38.494Z,1013.33
2022-12-01T03:01:38.367Z,1013.27
2022-12-01T03:02:38.298Z,1013.27
2022-12-01T03:03:38.222Z,1013.39
2022-12-01T03:04:38.424Z,1013.25
2022-12-01T03:05:38.213Z,1013.30
2022-12-01T03:06:38.204Z,1013.30
2022-12-01T03:07:38.229Z,1013.29
2022-12-01T03:08:38.176Z,1013.30
2022-12-01T03:09:38.172Z,1013.33
2022-12-01T03:10:38.148Z,1013.32
2022-12-01T03:11:38.142Z,1013.36
2022-12-01T03:12:38.325Z,1013.36
2022-12-01T03:13:38.097Z,1013.33
2022-12-01T03:14:38.071Z,1013.40
2022-12-01T03:15:38.367Z,1013.35
2022-12-01T03:16:38.050Z,1013.36
2022-12-01T03:17:38.049Z,1013.30
2022-12-01T03:18:38.259Z,1013.35
2022-12-01T03:19:38.041Z,1013.42
2022-12-01T03:20:38.008Z,1013.39
2022-12-01T03:21:38.003Z,1013.39
2022-12-01T03:22:37.968Z,1013.38
2022-12-01T03:23:38.169Z,1013.33
2022-12-01T03:24:37.949Z,1013.40
2022-12-01T03:25:37.940Z,1013.32
2022-12-01T03:26:38.156Z,1013.36
2022-12-01T03:27:37.920Z,1013.38
2022-12-01T03:28:38.108Z,1013.31
2022-12-01T03:29:37.894Z,1013.33
2022-12-01T03:30:37.878Z,1013.30
2022-12-01T03:31:38.152Z,1013.34
2022-12-01T03:32:37.847Z,1013.30
2022-12-01T03:33:37.845Z,1013.34
2022-12-01T03:34:37.832Z,1013.38
2022-12-01T03:35:37.815Z,1013.34
2022-12-01T03:36:37.817Z,1013.35
2022-12-01T03:37:37.786Z,1013.44
2022-12-01T03:38:37.767Z,1013.38
2022-12-01T03:39:37.755Z,1013.42
2022-12-01T03:40:37.735Z,1013.40
2022-12-01T03:41:37.956Z,1013.40
2022-12-01T03:42:37.716Z,1013.40
2022-12-01T03:43:37.712Z,1013.36
2022-12-01T03:44:37.694Z,1013.39
2022-12-01T03:45:37.716Z,1013.40
2022-12-01T03:46:37.903Z,1013.42
2022-12-01T03:47:37.660Z,1013.36
2022-12-01T03:48:37.863Z,1013.36
2022-12-01T03:49:37.832Z,1013.33
2022-12-01T03:50:37.611Z,1013.33
2022-12-01T03:51:37.601Z,1013.29
2022-12-01T03:52:37.603Z,1013.37
2022-12-01T03:53:37.572Z,1013.32
2022-12-01T03:54:37.583Z,1013.35
2022-12-01T03:55:37.552Z,1013.35
2022-12-01T03:56:37.532Z,1013.40
2022-12-01T03:57:37.552Z,1013.31
2022-12-01T03:58:37.511Z,1013.36
2022-12-01T03:59:37.500Z,1013.44
2022-12-01T04:00:37.514Z,1013.44
2022-12-01T04:01:37.552Z,1013.40
2022-12-01T04:02:37.547Z,1013.43
2022-12-01T04:03:37.450Z,1013.40
2022-12-01T04:04:37.430Z,1013.33
2022-12-01T04:05:37.629Z,1013.45
2022-12-01T04:06:37.408Z,1013.39
2022-12-01T04:07:37.493Z,1013.36
2022-12-01T04:08:37.617Z,1013.42
2022-12-01T04:09:37.369Z,1013.37
2022-12-01T04:10:37.365Z,1013.31
2022-12-01T04:11:37.350Z,1013.49
2022-12-01T04:12:37.330Z,1013.44
2022-12-01T04:13:37.568Z,1013.46
2022-12-01T04:14:37.305Z,1013.42
2022-12-01T04:15:37.302Z,1013.36
2022-12-01T04:16:37.314Z,1013.44
2022-12-01T04:17:37.266Z,1013.39
2022-12-01T04:18:37.477Z,1013.43
2022-12-01T04:19:37.237Z,1013.48
2022-12-01T04:20:37.234Z,1013.44
2022-12-01T04:21:37.217Z,1013.45
2022-12-01T04:22:37.197Z,1013.44
2022-12-01T04:23:37.416Z,1013.44
2022-12-01T04:24:37.176Z,1013.41
2022-12-01T04:25:37.165Z,1013.44
2022-12-01T04:26:37.167Z,1013.41
2022-12-01T04:27:37.137Z,1013.43
2022-12-01T04:28:37.335Z,1013.48
2022-12-01T04:29:37.126Z,1013.41
2022-12-01T04:30:37.105Z,1013.45
2022-12-01T04:31:37.393Z,1013.46
2022-12-01T04:32:37.077Z,1013.45
2022-12-01T04:33:37.065Z,1013.41
2022-12-01T04:34:37.046Z,1013.47
2022-12-01T04:35:37.246Z,1013.41
2022-12-01T04:36:37.027Z,1013.45
2022-12-01T04:37:37.014Z,1013.40
2022-12-01T04:38:37.002Z,1013.41
2022-12-01T04:39:36.993Z,1013.40
2022-12-01T04:40:37.162Z,1013.40
2022-12-01T04:41:36.951Z,1013.38
2022-12-01T04:42:37.171Z,1013.42
2022-12-01T04:43:36.931Z,1013.41
2022-12-01T04:44:36.925Z,1013.38
2022-12-01T04:45:36.912Z,1013.43
2022-12-01T04:46:36.982Z,1013.35
2022-12-01T04:47:37.090Z,1013.39
2022-12-01T04:48:36.875Z,1013.42
2022-12-01T04:49:36.849Z,1013.39
2022-12-01T04:50:36.839Z,1013.40
2022-12-01T04:51:36.833Z,1013.33
2022-12-01T04:52:37.006Z,1013.32
2022-12-01T04:53:36.800Z,1013.33
2022-12-01T04:54:36.791Z,1013.35
2022-12-01T04:55:36.809Z,1013.34
2022-12-01T04:56:36.773Z,1013.33
2022-12-01T04:57:36.749Z,1013.35
2022-12-01T04:58:36.741Z,1013.38
2022-12-01T04:59:36.724Z,1013.36
2022-12-01T05:00:37.010Z,1013.36
2022-12-01T05:01:36.755Z,1013.38
2022-12-01T05:02:36.723Z,1013.32
2022-12-01T05:03:36.931Z,1013.35
2022-12-01T05:04:36.678Z,1013.37
2022-12-01T05:05:36.647Z,1013.33
2022-12-01T05:06:36.638Z,1013.32
2022-12-01T05:07:36.670Z,1013.36
2022-12-01T05:08:36.614Z,1013.37
2022-12-01T05:09:36.806Z,1013.34
2022-12-01T05:10:36.821Z,1013.45
2022-12-01T05:11:36.565Z,1013.37
2022-12-01T05:12:36.567Z,1013.33
2022-12-01T05:13:36.544Z,1013.39
2022-12-01T05:14:36.533Z,1013.44
2022-12-01T05:15:36.727Z,1013.37
2022-12-01T05:16:36.577Z,1013.40
2022-12-01T05:17:37.206Z,1013.41
2022-12-01T05:18:36.533Z,1013.40
2022-12-01T05:19:36.673Z,1013.40
2022-12-01T05:20:36.464Z,1013.44
2022-12-01T05:21:36.664Z,1013.41
2022-12-01T05:23:03.903Z,1013.37
2022-12-01T05:23:37.412Z,1013.41
2022-12-01T05:24:36.428Z,1013.45
2022-12-01T05:25:36.396Z,1013.42
2022-12-01T05:26:36.383Z,1013.36
2022-12-01T05:27:36.364Z,1013.42
2022-12-01T05:28:36.448Z,1013.46
2022-12-01T05:29:36.561Z,1013.40
2022-12-01T05:30:36.341Z,1013.40
2022-12-01T05:31:36.369Z,1013.41
2022-12-01T05:32:36.315Z,1013.46
2022-12-01T05:33:36.281Z,1013.39
2022-12-01T05:34:36.318Z,1013.43
2022-12-01T05:35:36.460Z,1013.39
2022-12-01T05:36:36.250Z,1013.44
2022-12-01T05:37:36.509Z,1013.42
2022-12-01T05:38:36.228Z,1013.44
2022-12-01T05:39:36.202Z,1013.40
2022-12-01T05:40:36.419Z,1013.45
2022-12-01T05:41:36.179Z,1013.39
2022-12-01T05:42:36.403Z,1013.44
2022-12-01T05:43:36.158Z,1013.46
2022-12-01T05:44:36.140Z,1013.48
2022-12-01T05:45:36.175Z,1013.43
2022-12-01T05:46:36.118Z,1013.46
2022-12-01T05:47:36.097Z,1013.42
2022-12-01T05:48:36.137Z,1013.38
2022-12-01T05:49:36.120Z,1013.47
2022-12-01T05:50:36.066Z,1013.40
2022-12-01T05:51:36.054Z,1013.48
2022-12-01T05:52:36.052Z,1013.42
2022-12-01T05:53:36.039Z,1013.49
2022-12-01T05:54:36.030Z,1013.39
2022-12-01T05:55:36.009Z,1013.39
2022-12-01T05:56:35.999Z,1013.46
2022-12-01T05:57:35.984Z,1013.46
2022-12-01T05:58:35.970Z,1013.47
2022-12-01T05:59:36.166Z,1013.49
2022-12-01T06:00:39.628Z,1013.49
2022-12-01T06:01:37.163Z,1013.54
2022-12-01T06:02:35.924Z,1013.50
2022-12-01T06:03:36.117Z,1013.57
2022-12-01T06:04:35.922Z,1013.48
2022-12-01T06:05:35.871Z,1013.53
2022-12-01T06:06:35.867Z,1013.49
2022-12-01T06:07:36.105Z,1013.51
2022-12-01T06:08:35.867Z,1013.48
2022-12-01T06:09:35.886Z,1013.58
2022-12-01T06:10:35.803Z,1013.48
2022-12-01T06:11:35.849Z,1013.49
2022-12-01T06:12:35.824Z,1013.53
2022-12-01T06:13:35.772Z,1013.50
2022-12-01T06:14:35.772Z,1013.50
2022-12-01T06:15:35.751Z,1013.48
2022-12-01T06:16:35.828Z,1013.53
2022-12-01T06:17:40.249Z,1013.53
2022-12-01T06:18:35.713Z,1013.50
2022-12-01T06:19:35.706Z,1013.58
2022-12-01T06:20:35.740Z,1013.52
2022-12-01T06:21:35.663Z,1013.62
2022-12-01T06:22:35.659Z,1013.55
2022-12-01T06:23:35.647Z,1013.58
2022-12-01T06:24:35.658Z,1013.60
2022-12-01T06:25:35.638Z,1013.60
2022-12-01T06:26:35.610Z,1013.64
2022-12-01T06:27:35.600Z,1013.62
2022-12-01T06:28:35.580Z,1013.67
2022-12-01T06:29:40.552Z,1013.68
2022-12-01T06:30:36.569Z,1013.61
2022-12-01T06:31:35.596Z,1013.61
2022-12-01T06:32:35.531Z,1013.63
2022-12-01T06:33:35.525Z,1013.60
2022-12-01T06:34:35.506Z,1013.61
2022-12-01T06:35:35.698Z,1013.71
2022-12-01T06:36:35.470Z,1013.68
2022-12-01T06:37:35.467Z,1013.66
2022-12-01T06:38:35.457Z,1013.59
2022-12-01T06:39:35.442Z,1013.67
2022-12-01T06:40:35.441Z,1013.65
2022-12-01T06:41:35.416Z,1013.68
2022-12-01T06:42:35.405Z,1013.68
2022-12-01T06:43:35.385Z,1013.64
2022-12-01T06:44:35.366Z,1013.64
2022-12-01T06:45:35.640Z,1013.69
2022-12-01T06:46:35.513Z,1013.67
2022-12-01T06:47:35.335Z,1013.81
2022-12-01T06:48:35.326Z,1013.74
2022-12-01T06:49:35.494Z,1013.72
2022-12-01T06:50:35.304Z,1013.76
2022-12-01T06:51:35.285Z,1013.83
2022-12-01T06:52:35.264Z,1013.73
2022-12-01T06:53:35.443Z,1013.74
2022-12-01T06:54:35.243Z,1013.71
2022-12-01T06:55:35.233Z,1013.82
2022-12-01T06:56:35.212Z,1013.76
2022-12-01T06:57:35.215Z,1013.82
2022-12-01T06:58:35.413Z,1013.75
2022-12-01T06:59:35.184Z,1013.76
2022-12-01T07:00:35.167Z,1013.81
2022-12-01T07:01:35.234Z,1013.82
2022-12-01T07:02:35.241Z,1013.78
2022-12-01T07:03:35.143Z,1013.79
2022-12-01T07:04:35.110Z,1013.81
2022-12-01T07:05:35.102Z,1013.71
2022-12-01T07:06:35.292Z,1013.72
2022-12-01T07:07:35.341Z,1013.72
2022-12-01T07:08:35.060Z,1013.73
2022-12-01T07:09:35.050Z,1013.69
2022-12-01T07:10:35.248Z,1013.73
2022-12-01T07:11:35.028Z,1013.74
2022-12-01T07:12:35.010Z,1013.67
2022-12-01T07:13:35.053Z,1013.69
2022-12-01T07:14:34.981Z,1013.71
2022-12-01T07:15:34.979Z,1013.70
2022-12-01T07:16:35.224Z,1013.72
2022-12-01T07:17:34.938Z,1013.68
2022-12-01T07:18:35.038Z,1013.74
2022-12-01T07:19:34.928Z,1013.74
2022-12-01T07:20:34.908Z,1013.68
2022-12-01T07:21:34.910Z,1013.69
2022-12-01T07:22:34.887Z,1013.72
2022-12-01T07:23:34.880Z,1013.67
2022-12-01T07:24:34.892Z,1013.74
2022-12-01T07:25:34.846Z,1013.69
2022-12-01T07:26:34.827Z,1013.76
2022-12-01T07:27:34.817Z,1013.81
2022-12-01T07:28:35.033Z,1013.87
2022-12-01T07:29:34.823Z,1013.84
2022-12-01T07:30:34.840Z,1013.79
2022-12-01T07:31:34.767Z,1013.85
2022-12-01T07:32:34.769Z,1013.91
2022-12-01T07:33:34.959Z,1013.94
2022-12-01T07:34:34.736Z,1013.92
2022-12-01T07:35:34.715Z,1013.85
2022-12-01T07:36:34.704Z,1013.87
2022-12-01T07:37:34.688Z,1013.89
2022-12-01T07:38:34.677Z,1013.93
2022-12-01T07:39:34.687Z,1013.88
2022-12-01T07:40:34.664Z,1013.84
2022-12-01T07:41:34.657Z,1013.78
2022-12-01T07:42:34.632Z,1013.95
2022-12-01T07:43:34.621Z,1013.89
2022-12-01T07:44:34.636Z,1013.92
2022-12-01T07:45:34.593Z,1013.89
2022-12-01T07:46:34.648Z,1013.94
2022-12-01T07:47:34.553Z,1013.90
2022-12-01T07:48:34.574Z,1013.90
2022-12-01T07:49:34.554Z,1013.87
2022-12-01T07:50:34.521Z,1013.97
2022-12-01T07:51:34.543Z,1013.88
2022-12-01T07:52:34.504Z,1013.89
2022-12-01T07:53:34.482Z,1013.90
2022-12-01T07:54:34.489Z,1013.94
2022-12-01T07:55:34.464Z,1013.87
2022-12-01T07:56:34.660Z,1013.88
2022-12-01T07:57:34.429Z,1013.87
2022-12-01T07:58:34.456Z,1013.89
2022-12-01T07:59:34.409Z,1013.99
2022-12-01T08:00:34.389Z,1013.95
2022-12-01T08:01:34.656Z,1013.96
2022-12-01T08:02:34.408Z,1013.98
2022-12-01T08:03:34.359Z,1013.95
2022-12-01T08:04:34.338Z,1013.94
2022-12-01T08:05:34.353Z,1013.97
2022-12-01T08:06:34.320Z,1014.01
2022-12-01T08:07:34.368Z,1014.02
2022-12-01T08:08:34.298Z,1014.05
2022-12-01T08:09:34.278Z,1014.04
2022-12-01T08:10:34.306Z,1013.94
2022-12-01T08:11:34.247Z,1013.99
2022-12-01T08:12:34.246Z,1014.00
2022-12-01T08:13:34.222Z,1014.00
2022-12-01T08:14:34.207Z,1014.05
2022-12-01T08:15:34.252Z,1014.08
2022-12-01T08:16:34.218Z,1014.09
2022-12-01T08:17:34.174Z,1014.14
2022-12-01T08:18:34.165Z,1014.09
2022-12-01T08:19:34.167Z,1014.09
2022-12-01T08:20:34.135Z,1014.06
2022-12-01T08:21:34.115Z,1014.13
2022-12-01T08:22:34.119Z,1014.16
2022-12-01T08:23:34.094Z,1014.14
2022-12-01T08:24:34.116Z,1014.15
2022-12-01T08:25:34.074Z,1014.15
2022-12-01T08:26:34.104Z,1014.14
2022-12-01T08:27:34.040Z,1014.21
2022-12-01T08:28:34.034Z,1014.18
2022-12-01T08:29:34.053Z,1014.16
2022-12-01T08:30:34.012Z,1014.24
2022-12-01T08:31:34.211Z,1014.20
2022-12-01T08:32:33.977Z,1014.19
2022-12-01T08:33:33.961Z,1014.13
2022-12-01T08:34:33.960Z,1014.21
2022-12-01T08:35:33.957Z,1014.23
2022-12-01T08:36:34.152Z,1014.17
2022-12-01T08:37:33.912Z,1014.20
2022-12-01T08:38:33.915Z,1014.22
2022-12-01T08:39:33.911Z,1014.22
2022-12-01T08:40:33.889Z,1014.24
2022-12-01T08:41:33.863Z,1014.25
2022-12-01T08:42:33.850Z,1014.25
2022-12-01T08:43:56.536Z,1014.27
2022-12-01T08:44:34.964Z,1014.27
2022-12-01T08:45:33.819Z,1014.28
2022-12-01T08:46:33.919Z,1014.27
2022-12-01T08:47:33.979Z,1014.22
2022-12-01T08:48:33.791Z,1014.24
2022-12-01T08:49:33.782Z,1014.25
2022-12-01T08:50:33.749Z,1014.19
2022-12-01T08:51:33.763Z,1014.22
2022-12-01T08:52:33.739Z,1014.19
2022-12-01T08:53:33.730Z,1014.28
2022-12-01T08:54:33.712Z,1014.24
2022-12-01T08:55:33.797Z,1014.27
2022-12-01T08:56:33.681Z,1014.22
2022-12-01T08:57:33.656Z,1014.27
2022-12-01T08:58:33.647Z,1014.24
2022-12-01T08:59:33.658Z,1014.26
2022-12-01T09:00:33.624Z,1014.30
2022-12-01T09:01:33.679Z,1014.22
2022-12-01T09:02:33.870Z,1014.28
2022-12-01T09:03:33.575Z,1014.37
2022-12-01T09:04:33.575Z,1014.34
2022-12-01T09:05:33.555Z,1014.30
2022-12-01T09:06:33.548Z,1014.29
2022-12-01T09:07:33.590Z,1014.29
2022-12-01T09:08:33.723Z,1014.30
2022-12-01T09:09:33.494Z,1014.24
2022-12-01T09:10:33.693Z,1014.28
2022-12-01T09:11:33.688Z,1014.26
2022-12-01T09:12:33.468Z,1014.31
2022-12-01T09:13:33.453Z,1014.27
2022-12-01T09:14:33.465Z,1014.27
2022-12-01T09:15:33.434Z,1014.30
2022-12-01T09:16:33.684Z,1014.27
2022-12-01T09:17:33.432Z,1014.27
2022-12-01T09:18:33.392Z,1014.32
2022-12-01T09:19:33.402Z,1014.27
2022-12-01T09:20:33.374Z,1014.35
2022-12-01T09:21:33.368Z,1014.37
2022-12-01T09:22:33.372Z,1014.42
2022-12-01T09:23:33.321Z,1014.40
2022-12-01T09:24:33.311Z,1014.39
2022-12-01T09:25:33.300Z,1014.43
2022-12-01T09:26:33.299Z,1014.43
2022-12-01T09:27:33.495Z,1014.38
2022-12-01T09:28:33.259Z,1014.41
2022-12-01T09:29:33.273Z,1014.44
2022-12-01T09:30:33.243Z,1014.35
2022-12-01T09:31:33.278Z,1014.37
2022-12-01T09:32:33.440Z,1014.34
2022-12-01T09:33:33.188Z,1014.37
2022-12-01T09:34:33.199Z,1014.41
2022-12-01T09:35:33.388Z,1014.42
2022-12-01T09:36:33.162Z,1014.35
2022-12-01T09:37:33.162Z,1014.36
2022-12-01T09:38:33.136Z,1014.36
2022-12-01T09:39:33.120Z,1014.28
2022-12-01T09:40:33.320Z,1014.40
2022-12-01T09:41:33.090Z,1014.40
2022-12-01T09:42:35.568Z,1014.38
2022-12-01T09:43:33.077Z,1014.43
2022-12-01T09:44:33.067Z,1014.44
2022-12-01T09:45:33.036Z,1014.44
2022-12-01T09:46:33.089Z,1014.38
2022-12-01T09:47:33.235Z,1014.42
2022-12-01T09:48:33.007Z,1014.41
2022-12-01T09:49:32.984Z,1014.38
2022-12-01T09:50:33.193Z,1014.42
2022-12-01T09:51:32.971Z,1014.37
2022-12-01T09:52:32.982Z,1014.36
2022-12-01T09:53:33.024Z,1014.38
2022-12-01T09:54:33.006Z,1014.43
2022-12-01T09:55:32.960Z,1014.38
2022-12-01T09:56:32.907Z,1014.38
2022-12-01T09:57:33.109Z,1014.36
2022-12-01T09:58:32.934Z,1014.47
2022-12-01T09:59:32.863Z,1014.44
2022-12-01T10:00:32.920Z,1014.39
2022-12-01T10:01:32.946Z,1014.40
2022-12-01T10:02:33.071Z,1014.42
2022-12-01T10:03:32.901Z,1014.42
2022-12-01T10:04:32.803Z,1014.38
2022-12-01T10:05:32.827Z,1014.43
2022-12-01T10:06:32.832Z,1014.40
2022-12-01T10:07:33.033Z,1014.39
2022-12-01T10:08:32.761Z,1014.41
2022-12-01T10:09:32.730Z,1014.40
2022-12-01T10:10:32.722Z,1014.40
2022-12-01T10:11:32.730Z,1014.31
2022-12-01T10:12:32.902Z,1014.32
2022-12-01T10:13:32.691Z,1014.35
2022-12-01T10:14:32.671Z,1014.35
2022-12-01T10:15:32.659Z,1014.28
2022-12-01T10:16:32.721Z,1014.24
2022-12-01T10:17:32.658Z,1014.28
2022-12-01T10:18:32.660Z,1014.28
2022-12-01T10:19:32.614Z,1014.26
2022-12-01T10:20:32.636Z,1014.28
2022-12-01T10:21:32.578Z,1014.22
2022-12-01T10:22:32.559Z,1014.26
2022-12-01T10:23:32.578Z,1014.23
2022-12-01T10:24:32.538Z,1014.15
2022-12-01T10:25:32.532Z,1014.19
2022-12-01T10:26:32.509Z,1014.15
2022-12-01T10:27:32.509Z,1014.16
2022-12-01T10:28:32.536Z,1014.22
2022-12-01T10:29:32.531Z,1014.17
2022-12-01T10:30:32.468Z,1014.21
2022-12-01T10:31:32.551Z,1014.23
2022-12-01T10:32:32.440Z,1014.21
2022-12-01T10:33:32.658Z,1014.18
2022-12-01T10:34:32.405Z,1014.13
2022-12-01T10:35:32.396Z,1014.20
2022-12-01T10:36:32.384Z,1014.12
2022-12-01T10:37:32.543Z,1014.08
2022-12-01T10:38:32.372Z,1014.16
2022-12-01T10:39:32.356Z,1014.14
2022-12-01T10:40:32.338Z,1014.09
2022-12-01T10:41:32.556Z,1014.08
2022-12-01T10:42:32.305Z,1014.09
2022-12-01T10:43:32.303Z,1014.03
2022-12-01T10:44:32.305Z,1014.06
2022-12-01T10:45:32.317Z,1014.06
2022-12-01T10:46:32.266Z,1014.07
2022-12-01T10:47:32.514Z,1014.04
2022-12-01T10:48:32.233Z,1014.02
2022-12-01T10:49:32.215Z,1014.02
2022-12-01T10:50:32.204Z,1014.05
2022-12-01T10:51:32.421Z,1014.00
2022-12-01T10:52:32.177Z,1014.00
2022-12-01T10:53:32.162Z,1013.99
2022-12-01T10:54:32.164Z,1014.03
2022-12-01T10:55:32.144Z,1014.01
2022-12-01T10:56:32.161Z,1014.02
2022-12-01T10:57:32.112Z,1014.02
2022-12-01T10:58:32.103Z,1014.06
2022-12-01T10:59:32.110Z,1014.05
2022-12-01T11:01:33.279Z,1013.98
2022-12-01T11:02:32.233Z,1014.05
2022-12-01T11:03:32.311Z,1014.00
2022-12-01T11:04:32.030Z,1014.02
2022-12-01T11:05:32.098Z,1014.07
2022-12-01T11:06:32.087Z,1014.04
2022-12-01T11:07:32.109Z,1014.09
2022-12-01T11:08:32.060Z,1014.08
2022-12-01T11:09:31.987Z,1014.10
2022-12-01T11:10:31.969Z,1014.03
2022-12-01T11:11:31.957Z,1014.01
2022-12-01T11:12:31.919Z,1014.03
2022-12-01T11:13:31.911Z,1014.00
2022-12-01T11:14:31.922Z,1014.00
2022-12-01T11:15:31.887Z,1013.98
2022-12-01T11:16:31.938Z,1013.99
2022-12-01T11:17:31.868Z,1014.04
2022-12-01T11:18:31.910Z,1014.05
2022-12-01T11:19:31.884Z,1013.94
2022-12-01T11:20:32.059Z,1013.95
2022-12-01T11:21:31.833Z,1013.99
2022-12-01T11:22:31.797Z,1013.99
2022-12-01T11:23:31.787Z,1013.97
2022-12-01T11:24:31.766Z,1013.97
2022-12-01T11:25:31.955Z,1013.98
2022-12-01T11:26:31.745Z,1013.98
2022-12-01T11:27:31.741Z,1013.97
2022-12-01T11:28:31.713Z,1014.04
2022-12-01T11:29:31.915Z,1013.94
2022-12-01T11:30:31.694Z,1013.90
2022-12-01T11:31:31.747Z,1013.92
2022-12-01T11:32:31.666Z,1013.93
2022-12-01T11:33:31.663Z,1013.94
2022-12-01T11:34:31.656Z,1013.95
2022-12-01T11:35:31.813Z,1013.94
2022-12-01T11:36:31.602Z,1013.96
2022-12-01T11:37:31.603Z,1013.99
2022-12-01T11:38:31.641Z,1014.01
2022-12-01T11:39:31.589Z,1013.99
2022-12-01T11:40:31.569Z,1013.98
2022-12-01T11:41:31.543Z,1014.05
2022-12-01T11:42:31.806Z,1013.97
2022-12-01T11:43:31.740Z,1013.99
2022-12-01T11:45:32.555Z,1013.98
2022-12-01T11:46:31.489Z,1013.97
2022-12-01T11:47:31.509Z,1013.91
2022-12-01T11:48:31.471Z,1013.94
2022-12-01T11:49:31.479Z,1013.90
2022-12-01T11:50:31.432Z,1013.92
2022-12-01T11:51:31.418Z,1013.96
2022-12-01T11:52:31.765Z,1013.94
2022-12-01T11:53:31.433Z,1013.99
2022-12-01T11:54:31.390Z,1013.98
2022-12-01T11:55:31.360Z,1014.03
2022-12-01T11:56:31.360Z,1013.97
2022-12-01T11:57:34.589Z,1014.04
2022-12-01T11:58:31.416Z,1013.96
2022-12-01T11:59:31.322Z,1013.96
2022-12-01T12:00:31.307Z,1013.87
2022-12-01T12:01:31.320Z,1013.84
2022-12-01T12:02:31.337Z,1013.85
2022-12-01T12:03:31.333Z,1013.86
2022-12-01T12:04:31.285Z,1013.89
2022-12-01T12:05:31.237Z,1013.92
2022-12-01T12:06:39.990Z,1013.87
2022-12-01T12:07:32.291Z,1013.88